sensor_id;sensor_type;location;lat;lon;timestamp;pressure;altitude;pressure_sealevel;temperature;humidity
23241;BME280;11789;53.482;9.862;2023-05-28T00:01:58;102278.50;;;10.75;99.94
23241;BME280;11789;53.482;9.862;2023-05-28T00:04:24;102281.88;;;10.72;100.00
23241;BME280;11789;53.482;9.862;2023-05-28T00:06:52;102280.13;;;10.71;100.00
23241;BME280;11789;53.482;9.862;2023-05-28T00:09:20;102274.22;;;10.77;100.00
23241;BME280;11789;53.482;9.862;2023-05-28T00:11:46;102269.09;;;10.80;100.00
23241;BME280;11789;53.482;9.862;2023-05-28T00:14:11;102272.50;;;10.79;99.75
23241;BME280;11789;53.482;9.862;2023-05-28T00:16:37;102278.53;;;10.78;100.00
23241;BME280;11789;53.482;9.862;2023-05-28T00:19:03;102276.03;;;10.81;100.00
23241;BME280;11789;53.482;9.862;2023-05-28T00:21:29;102273.34;;;10.78;100.00
23241;BME280;11789;53.482;9.862;2023-05-28T00:23:58;102268.97;;;10.74;100.00
23241;BME280;11789;53.482;9.862;2023-05-28T00:26:24;102280.03;;;10.67;100.00
23241;BME280;11789;53.482;9.862;2023-05-28T00:28:50;102267.84;;;10.61;100.00
23241;BME280;11789;53.482;9.862;2023-05-28T00:31:15;102278.09;;;10.56;100.00
23241;BME280;11789;53.482;9.862;2023-05-28T00:33:41;102278.84;;;10.52;100.00
23241;BME280;11789;53.482;9.862;2023-05-28T00:36:09;102277.03;;;10.48;100.00
23241;BME280;11789;53.482;9.862;2023-05-28T00:38:34;102274.50;;;10.50;100.00
23241;BME280;11789;53.482;9.862;2023-05-28T00:41:00;102272.78;;;10.50;100.00
23241;BME280;11789;53.482;9.862;2023-05-28T00:43:25;102275.28;;;10.47;100.00
23241;BME280;11789;53.482;9.862;2023-05-28T00:45:51;102276.91;;;10.42;100.00
23241;BME280;11789;53.482;9.862;2023-05-28T00:48:16;102270.75;;;10.37;100.00
23241;BME280;11789;53.482;9.862;2023-05-28T00:50:43;102271.47;;;10.31;100.00
23241;BME280;11789;53.482;9.862;2023-05-28T00:53:09;102267.09;;;10.29;100.00
23241;BME280;11789;53.482;9.862;2023-05-28T00:55:35;102265.41;;;10.29;100.00
23241;BME280;11789;53.482;9.862;2023-05-28T00:58:01;102262.84;;;10.31;100.00
23241;BME280;11789;53.482;9.862;2023-05-28T01:00:33;102263.72;;;10.31;100.00
23241;BME280;11789;53.482;9.862;2023-05-28T01:02:59;102257.56;;;10.25;100.00
23241;BME280;11789;53.482;9.862;2023-05-28T01:05:25;102258.19;;;10.16;100.00
23241;BME280;11789;53.482;9.862;2023-05-28T01:07:51;102262.47;;;10.16;100.00
23241;BME280;11789;53.482;9.862;2023-05-28T01:10:16;102259.19;;;10.23;100.00
23241;BME280;11789;53.482;9.862;2023-05-28T01:12:43;102255.00;;;10.26;100.00
23241;BME280;11789;53.482;9.862;2023-05-28T01:15:09;102256.00;;;10.33;100.00
23241;BME280;11789;53.482;9.862;2023-05-28T01:17:35;102252.72;;;10.40;100.00
23241;BME280;11789;53.482;9.862;2023-05-28T01:20:01;102255.53;;;10.49;100.00
23241;BME280;11789;53.482;9.862;2023-05-28T01:22:36;102252.12;;;10.53;100.00
23241;BME280;11789;53.482;9.862;2023-05-28T01:25:04;102250.37;;;10.51;100.00
23241;BME280;11789;53.482;9.862;2023-05-28T01:27:37;102249.31;;;10.43;100.00
23241;BME280;11789;53.482;9.862;2023-05-28T01:30:05;102250.06;;;10.37;100.00
23241;BME280;11789;53.482;9.862;2023-05-28T01:32:32;102251.69;;;10.32;100.00
23241;BME280;11789;53.482;9.862;2023-05-28T01:34:57;102251.50;;;10.24;100.00
23241;BME280;11789;53.482;9.862;2023-05-28T01:37:24;102251.41;;;10.21;100.00
23241;BME280;11789;53.482;9.862;2023-05-28T01:39:52;102254.84;;;10.20;100.00
23241;BME280;11789;53.482;9.862;2023-05-28T01:42:18;102245.22;;;10.14;100.00
23241;BME280;11789;53.482;9.862;2023-05-28T01:44:45;102234.66;;;10.05;100.00
23241;BME280;11789;53.482;9.862;2023-05-28T01:47:12;102235.47;;;10.03;100.00
23241;BME280;11789;53.482;9.862;2023-05-28T01:49:38;102232.00;;;10.02;100.00
23241;BME280;11789;53.482;9.862;2023-05-28T01:52:05;102237.31;;;10.08;100.00
23241;BME280;11789;53.482;9.862;2023-05-28T01:54:31;102241.78;;;10.14;100.00
23241;BME280;11789;53.482;9.862;2023-05-28T01:56:57;102240.94;;;10.15;100.00
23241;BME280;11789;53.482;9.862;2023-05-28T01:59:22;102226.16;;;10.09;100.00
23241;BME280;11789;53.482;9.862;2023-05-28T02:01:48;102233.94;;;10.11;100.00
23241;BME280;11789;53.482;9.862;2023-05-28T02:04:13;102233.97;;;10.12;100.00
23241;BME280;11789;53.482;9.862;2023-05-28T02:06:39;102237.53;;;10.18;100.00
23241;BME280;11789;53.482;9.862;2023-05-28T02:09:05;102227.25;;;10.19;100.00
23241;BME280;11789;53.482;9.862;2023-05-28T02:11:31;102231.50;;;10.19;100.00
23241;BME280;11789;53.482;9.862;2023-05-28T02:13:56;102235.16;;;10.25;100.00
23241;BME280;11789;53.482;9.862;2023-05-28T02:16:22;102237.00;;;10.31;100.00
23241;BME280;11789;53.482;9.862;2023-05-28T02:18:50;102230.25;;;10.37;100.00
23241;BME280;11789;53.482;9.862;2023-05-28T02:21:17;102239.94;;;10.46;100.00
23241;BME280;11789;53.482;9.862;2023-05-28T02:23:44;102237.44;;;10.51;100.00
23241;BME280;11789;53.482;9.862;2023-05-28T02:26:10;102227.13;;;10.52;100.00
23241;BME280;11789;53.482;9.862;2023-05-28T02:28:36;102228.50;;;10.35;100.00
23241;BME280;11789;53.482;9.862;2023-05-28T02:31:01;102233.50;;;10.29;100.00
23241;BME280;11789;53.482;9.862;2023-05-28T02:33:27;102231.84;;;10.31;100.00
23241;BME280;11789;53.482;9.862;2023-05-28T02:35:53;102231.97;;;10.37;100.00
23241;BME280;11789;53.482;9.862;2023-05-28T02:38:19;102240.63;;;10.39;100.00
23241;BME280;11789;53.482;9.862;2023-05-28T02:40:45;102237.03;;;10.32;100.00
23241;BME280;11789;53.482;9.862;2023-05-28T02:43:11;102230.69;;;10.20;100.00
23241;BME280;11789;53.482;9.862;2023-05-28T02:45:36;102226.97;;;10.08;100.00
23241;BME280;11789;53.482;9.862;2023-05-28T02:48:01;102231.88;;;9.96;100.00
23241;BME280;11789;53.482;9.862;2023-05-28T02:50:27;102236.94;;;9.93;100.00
23241;BME280;11789;53.482;9.862;2023-05-28T02:52:52;102233.34;;;9.86;100.00
23241;BME280;11789;53.482;9.862;2023-05-28T02:55:18;102226.16;;;9.73;100.00
23241;BME280;11789;53.482;9.862;2023-05-28T02:57:43;102226.84;;;9.66;100.00
23241;BME280;11789;53.482;9.862;2023-05-28T03:00:09;102225.19;;;9.68;100.00
23241;BME280;11789;53.482;9.862;2023-05-28T03:02:35;102222.66;;;9.71;100.00
23241;BME280;11789;53.482;9.862;2023-05-28T03:05:01;102223.75;;;9.81;100.00
23241;BME280;11789;53.482;9.862;2023-05-28T03:07:31;102222.00;;;9.80;100.00
23241;BME280;11789;53.482;9.862;2023-05-28T03:09:57;102226.41;;;9.84;100.00
23241;BME280;11789;53.482;9.862;2023-05-28T03:12:22;102234.34;;;9.92;100.00
23241;BME280;11789;53.482;9.862;2023-05-28T03:14:48;102234.53;;;9.99;100.00
23241;BME280;11789;53.482;9.862;2023-05-28T03:17:13;102227.69;;;10.01;100.00
23241;BME280;11789;53.482;9.862;2023-05-28T03:19:39;102237.22;;;10.04;100.00
23241;BME280;11789;53.482;9.862;2023-05-28T03:22:04;102245.00;;;10.05;100.00
23241;BME280;11789;53.482;9.862;2023-05-28T03:24:30;102245.78;;;10.01;100.00
23241;BME280;11789;53.482;9.862;2023-05-28T03:26:57;102244.78;;;9.96;100.00
23241;BME280;11789;53.482;9.862;2023-05-28T03:29:22;102237.88;;;9.95;99.39
23241;BME280;11789;53.482;9.862;2023-05-28T03:31:48;102239.38;;;9.87;98.75
23241;BME280;11789;53.482;9.862;2023-05-28T03:34:13;102245.16;;;9.77;99.53
23241;BME280;11789;53.482;9.862;2023-05-28T03:36:39;102241.81;;;9.79;99.20
23241;BME280;11789;53.482;9.862;2023-05-28T03:39:07;102247.13;;;9.85;98.90
23241;BME280;11789;53.482;9.862;2023-05-28T03:41:33;102245.31;;;9.83;98.52
23241;BME280;11789;53.482;9.862;2023-05-28T03:43:59;102242.34;;;9.68;99.60
23241;BME280;11789;53.482;9.862;2023-05-28T03:46:24;102237.88;;;9.60;100.00
23241;BME280;11789;53.482;9.862;2023-05-28T03:48:50;102237.66;;;9.53;100.00
23241;BME280;11789;53.482;9.862;2023-05-28T03:51:15;102240.09;;;9.47;100.00
23241;BME280;11789;53.482;9.862;2023-05-28T03:53:41;102231.44;;;9.43;100.00
23241;BME280;11789;53.482;9.862;2023-05-28T03:56:06;102230.63;;;9.46;100.00
23241;BME280;11789;53.482;9.862;2023-05-28T03:58:32;102229.84;;;9.48;100.00
23241;BME280;11789;53.482;9.862;2023-05-28T04:00:58;102226.28;;;9.43;100.00
23241;BME280;11789;53.482;9.862;2023-05-28T04:03:23;102227.84;;;9.38;100.00
23241;BME280;11789;53.482;9.862;2023-05-28T04:05:48;102226.16;;;9.39;100.00
23241;BME280;11789;53.482;9.862;2023-05-28T04:08:14;102235.03;;;9.50;100.00
23241;BME280;11789;53.482;9.862;2023-05-28T04:10:39;102230.03;;;9.57;100.00
23241;BME280;11789;53.482;9.862;2023-05-28T04:13:05;102232.88;;;9.67;100.00
23241;BME280;11789;53.482;9.862;2023-05-28T04:15:30;102221.75;;;9.69;100.00
23241;BME280;11789;53.482;9.862;2023-05-28T04:17:56;102224.47;;;9.75;100.00
23241;BME280;11789;53.482;9.862;2023-05-28T04:20:21;102216.91;;;9.83;100.00
23241;BME280;11789;53.482;9.862;2023-05-28T04:22:47;102224.88;;;9.92;100.00
23241;BME280;11789;53.482;9.862;2023-05-28T04:25:12;102227.81;;;10.07;100.00
23241;BME280;11789;53.482;9.862;2023-05-28T04:27:38;102233.44;;;10.26;100.00
23241;BME280;11789;53.482;9.862;2023-05-28T04:30:07;102237.22;;;10.40;100.00
23241;BME280;11789;53.482;9.862;2023-05-28T04:32:33;102238.19;;;10.45;100.00
23241;BME280;11789;53.482;9.862;2023-05-28T04:34:59;102231.41;;;10.50;100.00
23241;BME280;11789;53.482;9.862;2023-05-28T04:37:28;102234.97;;;10.55;100.00
23241;BME280;11789;53.482;9.862;2023-05-28T04:39:53;102234.13;;;10.56;100.00
23241;BME280;11789;53.482;9.862;2023-05-28T04:42:19;102232.44;;;10.58;100.00
23241;BME280;11789;53.482;9.862;2023-05-28T04:44:44;102230.97;;;10.70;100.00
23241;BME280;11789;53.482;9.862;2023-05-28T04:47:10;102243.16;;;10.75;100.00
23241;BME280;11789;53.482;9.862;2023-05-28T04:49:37;102242.28;;;10.76;100.00
23241;BME280;11789;53.482;9.862;2023-05-28T04:52:03;102237.25;;;10.84;99.83
23241;BME280;11789;53.482;9.862;2023-05-28T04:54:28;102233.13;;;10.92;99.48
23241;BME280;11789;53.482;9.862;2023-05-28T04:56:54;102231.56;;;11.00;98.97
23241;BME280;11789;53.482;9.862;2023-05-28T04:59:19;102235.12;;;11.05;98.85
23241;BME280;11789;53.482;9.862;2023-05-28T05:01:45;102226.50;;;11.06;98.86
23241;BME280;11789;53.482;9.862;2023-05-28T05:04:10;102236.84;;;11.06;99.25
23241;BME280;11789;53.482;9.862;2023-05-28T05:06:36;102233.50;;;11.12;99.37
23241;BME280;11789;53.482;9.862;2023-05-28T05:09:02;102238.88;;;11.23;99.42
23241;BME280;11789;53.482;9.862;2023-05-28T05:11:30;102233.06;;;11.34;99.42
23241;BME280;11789;53.482;9.862;2023-05-28T05:13:56;102232.44;;;11.49;99.34
23241;BME280;11789;53.482;9.862;2023-05-28T05:16:21;102240.37;;;11.57;99.02
23241;BME280;11789;53.482;9.862;2023-05-28T05:18:47;102238.75;;;11.63;99.00
23241;BME280;11789;53.482;9.862;2023-05-28T05:21:13;102234.59;;;11.75;98.78
23241;BME280;11789;53.482;9.862;2023-05-28T05:23:39;102236.63;;;11.91;98.19
23241;BME280;11789;53.482;9.862;2023-05-28T05:26:08;102236.84;;;12.03;97.77
23241;BME280;11789;53.482;9.862;2023-05-28T05:28:38;102231.88;;;12.18;97.60
23241;BME280;11789;53.482;9.862;2023-05-28T05:31:04;102227.75;;;12.33;97.49
23241;BME280;11789;53.482;9.862;2023-05-28T05:33:29;102223.63;;;12.47;97.58
23241;BME280;11789;53.482;9.862;2023-05-28T05:35:55;102216.84;;;12.58;97.70
23241;BME280;11789;53.482;9.862;2023-05-28T05:38:20;102215.12;;;12.57;97.90
23241;BME280;11789;53.482;9.862;2023-05-28T05:40:46;102213.47;;;12.65;97.85
23241;BME280;11789;53.482;9.862;2023-05-28T05:43:11;102211.69;;;12.61;98.55
23241;BME280;11789;53.482;9.862;2023-05-28T05:45:37;102216.94;;;12.64;99.14
23241;BME280;11789;53.482;9.862;2023-05-28T05:48:02;102212.59;;;12.65;99.49
23241;BME280;11789;53.482;9.862;2023-05-28T05:50:28;102211.72;;;12.63;99.63
23241;BME280;11789;53.482;9.862;2023-05-28T05:52:53;102216.94;;;12.64;99.74
23241;BME280;11789;53.482;9.862;2023-05-28T05:55:20;102221.31;;;12.68;100.00
23241;BME280;11789;53.482;9.862;2023-05-28T05:57:45;102229.97;;;12.69;100.00
23241;BME280;11789;53.482;9.862;2023-05-28T06:00:12;102223.84;;;12.65;100.00
23241;BME280;11789;53.482;9.862;2023-05-28T06:02:39;102222.97;;;12.65;100.00
23241;BME280;11789;53.482;9.862;2023-05-28T06:05:05;102229.09;;;12.71;100.00
23241;BME280;11789;53.482;9.862;2023-05-28T06:07:31;102229.22;;;12.79;100.00
23241;BME280;11789;53.482;9.862;2023-05-28T06:09:58;102232.72;;;12.83;100.00
23241;BME280;11789;53.482;9.862;2023-05-28T06:12:23;102236.25;;;12.88;100.00
23241;BME280;11789;53.482;9.862;2023-05-28T06:14:48;102232.75;;;12.86;100.00
23241;BME280;11789;53.482;9.862;2023-05-28T06:17:14;102238.75;;;12.82;100.00
23241;BME280;11789;53.482;9.862;2023-05-28T06:19:41;102242.19;;;12.79;100.00
23241;BME280;11789;53.482;9.862;2023-05-28T06:22:06;102237.94;;;12.86;100.00
23241;BME280;11789;53.482;9.862;2023-05-28T06:24:33;102241.56;;;13.02;100.00
23241;BME280;11789;53.482;9.862;2023-05-28T06:26:58;102239.13;;;13.15;100.00
23241;BME280;11789;53.482;9.862;2023-05-28T06:29:24;102244.47;;;13.26;100.00
23241;BME280;11789;53.482;9.862;2023-05-28T06:31:49;102240.19;;;13.31;100.00
23241;BME280;11789;53.482;9.862;2023-05-28T06:34:15;102239.31;;;13.29;100.00
23241;BME280;11789;53.482;9.862;2023-05-28T06:36:41;102241.88;;;13.28;100.00
23241;BME280;11789;53.482;9.862;2023-05-28T06:39:07;102242.75;;;13.27;100.00
23241;BME280;11789;53.482;9.862;2023-05-28T06:41:32;102240.13;;;13.23;100.00
23241;BME280;11789;53.482;9.862;2023-05-28T06:43:58;102242.63;;;13.17;100.00
23241;BME280;11789;53.482;9.862;2023-05-28T06:46:24;102236.59;;;13.18;100.00
23241;BME280;11789;53.482;9.862;2023-05-28T06:48:50;102232.31;;;13.22;100.00
23241;BME280;11789;53.482;9.862;2023-05-28T06:51:15;102240.19;;;13.30;100.00
23241;BME280;11789;53.482;9.862;2023-05-28T06:53:40;102238.56;;;13.41;100.00
23241;BME280;11789;53.482;9.862;2023-05-28T06:56:06;102241.25;;;13.48;99.33
23241;BME280;11789;53.482;9.862;2023-05-28T06:58:31;102240.44;;;13.54;98.99
23241;BME280;11789;53.482;9.862;2023-05-28T07:00:58;102248.28;;;13.59;98.51
23241;BME280;11789;53.482;9.862;2023-05-28T07:03:23;102246.59;;;13.65;97.97
23241;BME280;11789;53.482;9.862;2023-05-28T07:05:49;102248.41;;;13.75;97.49
23241;BME280;11789;53.482;9.862;2023-05-28T07:08:14;102251.09;;;13.88;97.71
23241;BME280;11789;53.482;9.862;2023-05-28T07:10:40;102251.13;;;13.91;96.89
23241;BME280;11789;53.482;9.862;2023-05-28T07:13:05;102248.56;;;13.95;96.49
23241;BME280;11789;53.482;9.862;2023-05-28T07:15:31;102254.66;;;14.02;95.85
23241;BME280;11789;53.482;9.862;2023-05-28T07:17:56;102251.19;;;14.00;95.24
23241;BME280;11789;53.482;9.862;2023-05-28T07:20:22;102255.56;;;14.04;95.28
23241;BME280;11789;53.482;9.862;2023-05-28T07:22:47;102253.81;;;14.01;95.01
23241;BME280;11789;53.482;9.862;2023-05-28T07:25:12;102263.34;;;14.01;94.16
23241;BME280;11789;53.482;9.862;2023-05-28T07:27:38;102272.00;;;14.00;93.67
23241;BME280;11789;53.482;9.862;2023-05-28T07:30:05;102266.75;;;13.95;93.54
23241;BME280;11789;53.482;9.862;2023-05-28T07:32:31;102266.78;;;13.97;93.74
23241;BME280;11789;53.482;9.862;2023-05-28T07:34:56;102261.56;;;13.97;94.28
23241;BME280;11789;53.482;9.862;2023-05-28T07:37:21;102264.13;;;13.92;94.25
23241;BME280;11789;53.482;9.862;2023-05-28T07:39:47;102269.31;;;13.91;94.36
23241;BME280;11789;53.482;9.862;2023-05-28T07:42:13;102267.59;;;13.93;94.66
23241;BME280;11789;53.482;9.862;2023-05-28T07:44:38;102270.19;;;13.93;94.81
23241;BME280;11789;53.482;9.862;2023-05-28T07:47:04;102279.72;;;13.91;94.42
23241;BME280;11789;53.482;9.862;2023-05-28T07:49:30;102284.03;;;13.89;94.38
23241;BME280;11789;53.482;9.862;2023-05-28T07:51:56;102273.66;;;13.92;94.53
23241;BME280;11789;53.482;9.862;2023-05-28T07:54:21;102276.31;;;13.96;94.62
23241;BME280;11789;53.482;9.862;2023-05-28T07:56:47;102273.75;;;14.01;94.37
23241;BME280;11789;53.482;9.862;2023-05-28T07:59:13;102271.19;;;14.09;93.48
23241;BME280;11789;53.482;9.862;2023-05-28T08:01:39;102266.91;;;14.18;93.55
23241;BME280;11789;53.482;9.862;2023-05-28T08:04:05;102269.59;;;14.29;93.49
23241;BME280;11789;53.482;9.862;2023-05-28T08:06:31;102270.50;;;14.39;92.31
23241;BME280;11789;53.482;9.862;2023-05-28T08:08:57;102263.63;;;14.47;91.20
23241;BME280;11789;53.482;9.862;2023-05-28T08:11:24;102258.53;;;14.56;90.57
23241;BME280;11789;53.482;9.862;2023-05-28T08:13:51;102257.66;;;14.63;89.83
23241;BME280;11789;53.482;9.862;2023-05-28T08:16:17;102262.06;;;14.73;89.14
23241;BME280;11789;53.482;9.862;2023-05-28T08:18:43;102264.72;;;14.86;86.88
23241;BME280;11789;53.482;9.862;2023-05-28T08:21:08;102261.25;;;14.90;86.08
23241;BME280;11789;53.482;9.862;2023-05-28T08:23:34;102263.91;;;14.97;85.86
23241;BME280;11789;53.482;9.862;2023-05-28T08:26:03;102258.72;;;15.08;85.96
23241;BME280;11789;53.482;9.862;2023-05-28T08:28:29;102265.69;;;15.18;85.75
23241;BME280;11789;53.482;9.862;2023-05-28T08:30:55;102262.25;;;15.21;85.32
23241;BME280;11789;53.482;9.862;2023-05-28T08:33:21;102254.44;;;15.33;84.93
23241;BME280;11789;53.482;9.862;2023-05-28T08:35:46;102257.94;;;15.41;83.40
23241;BME280;11789;53.482;9.862;2023-05-28T08:38:12;102257.94;;;15.52;83.54
23241;BME280;11789;53.482;9.862;2023-05-28T08:40:40;102253.59;;;15.60;83.77
23241;BME280;11789;53.482;9.862;2023-05-28T08:43:07;102248.38;;;15.60;83.30
23241;BME280;11789;53.482;9.862;2023-05-28T08:45:34;102251.03;;;15.72;83.25
23241;BME280;11789;53.482;9.862;2023-05-28T08:48:00;102254.50;;;15.80;80.24
23241;BME280;11789;53.482;9.862;2023-05-28T08:50:27;102250.16;;;15.90;79.96
23241;BME280;11789;53.482;9.862;2023-05-28T08:52:56;102254.50;;;15.96;79.23
23241;BME280;11789;53.482;9.862;2023-05-28T08:55:22;102248.38;;;16.06;78.40
23241;BME280;11789;53.482;9.862;2023-05-28T08:57:48;102248.41;;;16.09;77.11
23241;BME280;11789;53.482;9.862;2023-05-28T09:00:14;102246.66;;;16.14;76.89
23241;BME280;11789;53.482;9.862;2023-05-28T09:02:40;102250.97;;;16.24;77.02
23241;BME280;11789;53.482;9.862;2023-05-28T09:05:06;102238.78;;;16.29;78.21
23241;BME280;11789;53.482;9.862;2023-05-28T09:07:32;102239.63;;;16.44;77.87
23241;BME280;11789;53.482;9.862;2023-05-28T09:09:58;102237.84;;;16.53;76.13
23241;BME280;11789;53.482;9.862;2023-05-28T09:12:24;102237.78;;;16.66;75.59
23241;BME280;11789;53.482;9.862;2023-05-28T09:14:52;102240.41;;;16.69;75.21
23241;BME280;11789;53.482;9.862;2023-05-28T09:17:35;102244.78;;;16.68;74.25
23241;BME280;11789;53.482;9.862;2023-05-28T09:20:01;102238.66;;;16.75;74.10
23241;BME280;11789;53.482;9.862;2023-05-28T09:22:29;102242.09;;;16.82;73.25
23241;BME280;11789;53.482;9.862;2023-05-28T09:24:54;102232.53;;;16.82;73.13
23241;BME280;11789;53.482;9.862;2023-05-28T09:27:20;102225.56;;;16.86;73.10
23241;BME280;11789;53.482;9.862;2023-05-28T09:29:48;102228.16;;;16.89;72.88
23241;BME280;11789;53.482;9.862;2023-05-28T09:32:18;102221.16;;;16.99;71.36
23241;BME280;11789;53.482;9.862;2023-05-28T09:34:45;102223.72;;;17.02;71.15
23241;BME280;11789;53.482;9.862;2023-05-28T09:37:11;102222.84;;;17.04;71.93
23241;BME280;11789;53.482;9.862;2023-05-28T09:39:36;102228.88;;;17.14;71.98
23241;BME280;11789;53.482;9.862;2023-05-28T09:42:03;102221.03;;;17.19;70.71
23241;BME280;11789;53.482;9.862;2023-05-28T09:44:35;102222.75;;;17.20;70.60
23241;BME280;11789;53.482;9.862;2023-05-28T09:47:12;102217.47;;;17.26;66.84
23241;BME280;11789;53.482;9.862;2023-05-28T09:49:38;102222.66;;;17.35;67.78
23241;BME280;11789;53.482;9.862;2023-05-28T09:52:04;102216.50;;;17.44;67.92
23241;BME280;11789;53.482;9.862;2023-05-28T09:54:34;102222.59;;;17.44;67.76
23241;BME280;11789;53.482;9.862;2023-05-28T09:57:02;102218.19;;;17.49;67.71
23241;BME280;11789;53.482;9.862;2023-05-28T09:59:34;102224.19;;;17.60;69.68
23241;BME280;11789;53.482;9.862;2023-05-28T10:02:22;102221.53;;;17.65;69.10
23241;BME280;11789;53.482;9.862;2023-05-28T10:04:52;102214.59;;;17.64;66.81
23241;BME280;11789;53.482;9.862;2023-05-28T10:07:22;102212.87;;;17.60;66.69
23241;BME280;11789;53.482;9.862;2023-05-28T10:09:50;102212.97;;;17.43;66.07
23241;BME280;11789;53.482;9.862;2023-05-28T10:12:18;102214.78;;;17.40;66.56
23241;BME280;11789;53.482;9.862;2023-05-28T10:14:46;102213.81;;;17.51;66.12
23241;BME280;11789;53.482;9.862;2023-05-28T10:17:14;102212.87;;;17.57;65.09
23241;BME280;11789;53.482;9.862;2023-05-28T10:19:40;102204.13;;;17.61;65.16
23241;BME280;11789;53.482;9.862;2023-05-28T10:22:06;102205.00;;;17.64;64.56
23241;BME280;11789;53.482;9.862;2023-05-28T10:24:33;102204.94;;;17.71;65.40
23241;BME280;11789;53.482;9.862;2023-05-28T10:26:59;102209.28;;;17.73;65.59
23241;BME280;11789;53.482;9.862;2023-05-28T10:29:24;102215.38;;;17.77;65.10
23241;BME280;11789;53.482;9.862;2023-05-28T10:32:00;102203.94;;;17.85;63.21
23241;BME280;11789;53.482;9.862;2023-05-28T10:34:30;102197.75;;;17.93;61.79
23241;BME280;11789;53.482;9.862;2023-05-28T10:37:00;102196.94;;;17.87;62.12
23241;BME280;11789;53.482;9.862;2023-05-28T10:39:26;102207.53;;;17.75;63.34
23241;BME280;11789;53.482;9.862;2023-05-28T10:41:56;102207.56;;;17.68;63.62
23241;BME280;11789;53.482;9.862;2023-05-28T10:44:22;102204.94;;;17.69;63.30
23241;BME280;11789;53.482;9.862;2023-05-28T10:46:54;102204.03;;;17.73;61.15
23241;BME280;11789;53.482;9.862;2023-05-28T10:49:20;102204.88;;;17.78;61.03
23241;BME280;11789;53.482;9.862;2023-05-28T10:51:56;102203.09;;;17.82;61.45
23241;BME280;11789;53.482;9.862;2023-05-28T10:57:20;102200.28;;;18.02;58.40
23241;BME280;11789;53.482;9.862;2023-05-28T10:59:57;102201.06;;;18.11;59.19
23241;BME280;11789;53.482;9.862;2023-05-28T11:02:28;102195.78;;;18.16;59.24
23241;BME280;11789;53.482;9.862;2023-05-28T11:04:55;102195.75;;;18.21;59.87
23241;BME280;11789;53.482;9.862;2023-05-28T11:07:22;102208.81;;;18.21;60.26
23241;BME280;11789;53.482;9.862;2023-05-28T11:09:50;102199.16;;;18.24;60.96
23241;BME280;11789;53.482;9.862;2023-05-28T11:12:19;102193.97;;;18.21;58.74
23241;BME280;11789;53.482;9.862;2023-05-28T11:14:45;102190.47;;;18.22;58.55
23241;BME280;11789;53.482;9.862;2023-05-28T11:17:12;102197.41;;;18.26;57.65
23241;BME280;11789;53.482;9.862;2023-05-28T11:19:56;102186.94;;;18.26;58.34
23241;BME280;11789;53.482;9.862;2023-05-28T11:22:21;102196.47;;;18.32;58.18
23241;BME280;11789;53.482;9.862;2023-05-28T11:24:51;102191.22;;;18.33;58.21
23241;BME280;11789;53.482;9.862;2023-05-28T11:27:18;102190.47;;;18.25;56.98
23241;BME280;11789;53.482;9.862;2023-05-28T11:29:43;102194.88;;;18.20;57.46
23241;BME280;11789;53.482;9.862;2023-05-28T11:32:09;102186.09;;;18.23;55.52
23241;BME280;11789;53.482;9.862;2023-05-28T11:34:36;102187.75;;;18.31;56.17
23241;BME280;11789;53.482;9.862;2023-05-28T11:37:02;102173.69;;;18.40;57.83
23241;BME280;11789;53.482;9.862;2023-05-28T11:39:30;102177.09;;;18.47;57.74
23241;BME280;11789;53.482;9.862;2023-05-28T11:41:56;102180.47;;;18.55;58.63
23241;BME280;11789;53.482;9.862;2023-05-28T11:44:21;102173.38;;;18.63;58.50
23241;BME280;11789;53.482;9.862;2023-05-28T11:46:53;102176.84;;;18.66;58.08
23241;BME280;11789;53.482;9.862;2023-05-28T11:49:20;102176.94;;;18.59;56.91
23241;BME280;11789;53.482;9.862;2023-05-28T11:51:45;102170.75;;;18.63;57.40
23241;BME280;11789;53.482;9.862;2023-05-28T11:54:11;102176.94;;;18.60;57.51
23241;BME280;11789;53.482;9.862;2023-05-28T11:56:36;102173.34;;;18.66;57.99
23241;BME280;11789;53.482;9.862;2023-05-28T11:59:02;102174.06;;;18.79;59.33
23241;BME280;11789;53.482;9.862;2023-05-28T12:01:32;102182.69;;;18.87;60.16
23241;BME280;11789;53.482;9.862;2023-05-28T12:04:03;102174.72;;;18.95;59.19
23241;BME280;11789;53.482;9.862;2023-05-28T12:06:33;102166.09;;;18.88;58.62
23241;BME280;11789;53.482;9.862;2023-05-28T12:09:07;102173.97;;;18.86;59.18
23241;BME280;11789;53.482;9.862;2023-05-28T12:11:34;102166.13;;;18.86;59.49
23241;BME280;11789;53.482;9.862;2023-05-28T12:14:10;102176.66;;;18.82;58.82
23241;BME280;11789;53.482;9.862;2023-05-28T12:16:46;102160.19;;;18.72;58.47
23241;BME280;11789;53.482;9.862;2023-05-28T12:19:15;102162.75;;;18.75;60.78
23241;BME280;11789;53.482;9.862;2023-05-28T12:21:43;102162.72;;;18.78;59.88
23241;BME280;11789;53.482;9.862;2023-05-28T12:24:14;102164.44;;;18.82;59.86
23241;BME280;11789;53.482;9.862;2023-05-28T12:26:43;102159.88;;;18.93;59.62
23241;BME280;11789;53.482;9.862;2023-05-28T12:29:09;102164.31;;;18.91;58.02
23241;BME280;11789;53.482;9.862;2023-05-28T12:31:34;102157.22;;;18.97;58.72
23241;BME280;11789;53.482;9.862;2023-05-28T12:34:01;102155.34;;;19.05;58.53
23241;BME280;11789;53.482;9.862;2023-05-28T12:36:26;102153.44;;;19.14;58.19
23241;BME280;11789;53.482;9.862;2023-05-28T12:38:52;102161.22;;;19.21;57.14
23241;BME280;11789;53.482;9.862;2023-05-28T12:41:17;102160.25;;;19.28;57.02
23241;BME280;11789;53.482;9.862;2023-05-28T12:43:43;102158.25;;;19.40;58.95
23241;BME280;11789;53.482;9.862;2023-05-28T12:46:10;102156.50;;;19.41;58.04
23241;BME280;11789;53.482;9.862;2023-05-28T12:48:35;102160.94;;;19.37;56.31